createdAt,value
2023-03-19T06:02:26.286Z,6.83
2023-03-19T06:05:07.139Z,6.82
2023-03-19T06:07:34.378Z,6.80
2023-03-19T06:10:02.829Z,6.78
2023-03-19T06:12:30.961Z,6.79
2023-03-19T06:15:17.745Z,6.72
2023-03-19T06:17:45.000Z,6.73
2023-03-19T06:20:14.665Z,6.70
2023-03-19T06:22:43.947Z,6.71
2023-03-19T06:25:11.143Z,6.72
2023-03-19T06:27:38.606Z,6.71
2023-03-19T06:30:21.978Z,6.75
2023-03-19T06:32:49.633Z,6.78
2023-03-19T06:35:16.972Z,6.83
2023-03-19T06:37:47.901Z,6.84
2023-03-19T06:40:14.862Z,6.88
2023-03-19T06:42:46.888Z,6.94
2023-03-19T06:45:18.641Z,7.01
2023-03-19T06:47:53.349Z,7.08
2023-03-19T06:51:11.701Z,7.19
2023-03-19T06:53:39.010Z,7.29
2023-03-19T06:56:06.016Z,7.37
2023-03-19T06:58:33.298Z,7.54
2023-03-19T07:00:59.920Z,7.69
2023-03-19T07:03:27.080Z,7.86
2023-03-19T07:05:53.677Z,8.04
2023-03-19T07:08:20.958Z,8.24
2023-03-19T07:10:47.559Z,8.37
2023-03-19T07:13:14.795Z,8.53
2023-03-19T07:15:41.325Z,8.69
2023-03-19T07:18:08.516Z,8.80
2023-03-19T07:20:35.280Z,8.96
2023-03-19T07:23:02.353Z,9.10
2023-03-19T07:25:28.979Z,9.26
2023-03-19T07:27:56.255Z,9.39
2023-03-19T07:30:23.168Z,9.49
2023-03-19T07:32:50.745Z,9.63
2023-03-19T07:35:17.400Z,9.74
2023-03-19T07:37:44.480Z,9.84
2023-03-19T07:40:11.521Z,9.90
2023-03-19T07:42:38.757Z,10.06
2023-03-19T07:45:06.380Z,10.19
2023-03-19T07:47:33.338Z,10.30
2023-03-19T07:50:00.586Z,10.37
2023-03-19T07:52:27.965Z,10.48
2023-03-19T07:54:54.521Z,10.59
2023-03-19T07:57:21.947Z,10.70
2023-03-19T07:59:48.470Z,10.77
2023-03-19T08:02:15.632Z,10.77
2023-03-19T08:04:42.314Z,10.85
2023-03-19T08:07:13.112Z,10.92
2023-03-19T08:09:40.636Z,10.93
2023-03-19T08:12:08.575Z,10.94
2023-03-19T08:14:35.632Z,10.95
2023-03-19T08:17:02.972Z,10.97
2023-03-19T08:19:29.582Z,10.99
2023-03-19T08:21:56.898Z,11.05
2023-03-19T08:24:23.784Z,11.08
2023-03-19T08:26:50.865Z,11.10
2023-03-19T08:29:19.042Z,11.14
2023-03-19T08:31:46.572Z,11.22
2023-03-19T08:34:13.575Z,11.29
2023-03-19T08:36:41.066Z,11.35
2023-03-19T08:39:07.716Z,11.42
2023-03-19T08:41:35.173Z,11.47
2023-03-19T08:44:01.808Z,11.54
2023-03-19T08:46:29.662Z,11.62
2023-03-19T08:48:56.357Z,11.68
2023-03-19T08:51:26.371Z,11.77
2023-03-19T08:53:53.002Z,11.82
2023-03-19T08:56:20.740Z,11.89
2023-03-19T08:58:47.354Z,11.99
2023-03-19T09:01:15.167Z,12.05
2023-03-19T09:03:43.642Z,12.17
2023-03-19T09:06:12.541Z,12.34
2023-03-19T09:08:39.137Z,12.45
2023-03-19T09:11:06.939Z,12.60
2023-03-19T09:13:33.696Z,12.74
2023-03-19T09:16:01.693Z,12.79
2023-03-19T09:18:28.952Z,12.75
2023-03-19T09:20:56.207Z,12.69
2023-03-19T09:23:22.998Z,12.59
2023-03-19T09:25:50.638Z,12.63
2023-03-19T09:28:17.499Z,12.66
2023-03-19T09:30:49.546Z,12.66
2023-03-19T09:33:17.820Z,12.73
2023-03-19T09:35:51.497Z,12.89
2023-03-19T09:38:19.658Z,12.94
2023-03-19T09:40:49.789Z,13.00
2023-03-19T09:43:49.351Z,12.93
2023-03-19T09:46:22.874Z,12.96
2023-03-19T09:49:14.566Z,12.99
2023-03-19T09:51:49.314Z,13.05
2023-03-19T09:54:28.076Z,13.09
2023-03-19T09:56:56.313Z,13.19
2023-03-19T09:59:24.713Z,13.31
2023-03-19T10:01:59.819Z,13.42
2023-03-19T10:04:39.143Z,13.47
2023-03-19T10:07:15.919Z,13.52
2023-03-19T10:10:22.324Z,13.63
2023-03-19T10:13:02.440Z,13.72
2023-03-19T10:15:31.052Z,13.80
2023-03-19T10:18:04.555Z,13.86
2023-03-19T10:20:45.258Z,13.94
2023-03-19T10:23:31.209Z,14.09
2023-03-19T10:25:59.593Z,14.17
2023-03-19T10:28:42.790Z,14.34
2023-03-19T10:31:30.839Z,14.51
2023-03-19T10:34:43.503Z,14.81
2023-03-19T10:37:16.763Z,15.11
2023-03-19T10:39:45.890Z,15.36
2023-03-19T10:42:38.238Z,15.51
2023-03-19T10:45:26.417Z,15.53
2023-03-19T10:47:57.323Z,15.57
2023-03-19T10:50:33.085Z,15.59
2023-03-19T10:53:15.575Z,15.57
2023-03-19T10:55:50.790Z,15.61
2023-03-19T10:58:25.557Z,15.52
2023-03-19T11:01:11.053Z,15.41
2023-03-19T11:03:52.798Z,15.44
2023-03-19T11:06:23.615Z,15.46
2023-03-19T11:09:15.663Z,15.49
2023-03-19T11:11:52.311Z,15.45
2023-03-19T11:14:29.524Z,15.36
2023-03-19T11:17:22.855Z,15.16
2023-03-19T11:19:52.248Z,15.20
2023-03-19T11:22:27.383Z,15.25
2023-03-19T11:25:18.488Z,15.29
2023-03-19T11:27:59.430Z,15.29
2023-03-19T11:30:33.463Z,15.22
2023-03-19T11:33:18.675Z,15.08
2023-03-19T11:35:54.923Z,14.95
2023-03-19T11:38:41.273Z,14.72
2023-03-19T11:41:16.470Z,14.79
2023-03-19T11:44:01.300Z,14.79
2023-03-19T11:46:54.959Z,14.75
2023-03-19T11:49:30.313Z,14.66
2023-03-19T11:52:04.033Z,14.73
2023-03-19T11:54:45.632Z,14.82
2023-03-19T11:57:17.838Z,14.94
2023-03-19T11:59:50.490Z,14.99
2023-03-19T12:02:49.587Z,15.12
2023-03-19T12:06:00.147Z,15.09
2023-03-19T12:08:32.731Z,15.15
2023-03-19T12:11:37.606Z,15.08
2023-03-19T12:14:27.338Z,15.07
2023-03-19T12:17:15.868Z,15.15
2023-03-19T12:19:58.275Z,15.12
2023-03-19T12:22:41.352Z,15.16
2023-03-19T12:25:22.542Z,15.18
2023-03-19T12:27:59.058Z,15.16
2023-03-19T12:30:48.714Z,15.11
2023-03-19T12:33:36.740Z,15.05
2023-03-19T12:36:09.494Z,15.00
2023-03-19T12:38:41.601Z,14.89
2023-03-19T12:41:18.371Z,14.76
2023-03-19T12:43:49.622Z,14.72
2023-03-19T12:46:20.251Z,14.64
2023-03-19T12:48:53.614Z,14.55
2023-03-19T12:51:26.508Z,14.44
2023-03-19T12:54:03.914Z,14.38
2023-03-19T12:56:39.379Z,14.33
2023-03-19T12:59:31.167Z,14.30
2023-03-19T13:02:09.664Z,14.22
2023-03-19T13:04:44.952Z,14.15
2023-03-19T13:07:20.864Z,14.07
2023-03-19T13:10:01.057Z,14.06
2023-03-19T13:12:34.161Z,14.09
2023-03-19T13:15:16.814Z,14.14
2023-03-19T13:17:57.079Z,14.22
2023-03-19T13:20:35.238Z,14.28
2023-03-19T13:23:05.763Z,14.34
2023-03-19T13:25:41.684Z,14.33
2023-03-19T13:28:18.751Z,14.37
2023-03-19T13:31:20.931Z,14.42
2023-03-19T13:34:04.513Z,14.47
2023-03-19T13:36:36.370Z,14.51
2023-03-19T13:39:05.017Z,14.55
2023-03-19T13:41:34.731Z,14.59
2023-03-19T13:44:20.765Z,14.64
2023-03-19T13:46:48.284Z,14.69
2023-03-19T13:49:33.921Z,14.73
2023-03-19T13:52:20.814Z,14.77
2023-03-19T13:54:47.989Z,14.79
2023-03-19T13:57:18.310Z,14.84
2023-03-19T13:59:50.153Z,14.82
2023-03-19T14:02:22.849Z,14.82
2023-03-19T14:05:04.423Z,14.81
2023-03-19T14:07:40.328Z,14.83
2023-03-19T14:10:23.170Z,14.68
2023-03-19T14:12:50.204Z,14.68
2023-03-19T14:15:23.416Z,14.72
2023-03-19T14:17:53.443Z,14.72
2023-03-19T14:20:28.401Z,14.73
2023-03-19T14:23:08.921Z,14.73
2023-03-19T14:26:05.870Z,14.71
2023-03-19T14:28:36.578Z,14.70
2023-03-19T14:31:05.354Z,14.68
2023-03-19T14:33:44.676Z,14.62
2023-03-19T14:36:18.717Z,14.53
2023-03-19T14:38:51.558Z,14.38
2023-03-19T14:41:21.921Z,14.22
2023-03-19T14:44:07.391Z,14.06
2023-03-19T14:46:53.518Z,13.82
2023-03-19T14:49:32.916Z,13.59
2023-03-19T14:52:40.956Z,13.46
2023-03-19T14:55:15.486Z,13.31
2023-03-19T14:57:43.115Z,13.19
2023-03-19T15:00:17.778Z,13.12
2023-03-19T15:02:49.125Z,13.01
2023-03-19T15:05:22.683Z,13.02
2023-03-19T15:07:53.021Z,12.97
2023-03-19T15:10:27.930Z,12.96
2023-03-19T15:13:00.577Z,12.88
2023-03-19T15:16:05.597Z,12.84
2023-03-19T15:18:32.526Z,12.85
2023-03-19T15:20:59.665Z,12.75
2023-03-19T15:23:28.855Z,12.55
2023-03-19T15:26:00.770Z,12.40
2023-03-19T15:28:30.222Z,12.36
2023-03-19T15:31:14.085Z,12.37
2023-03-19T15:33:46.847Z,12.42
2023-03-19T15:36:22.140Z,12.40
2023-03-19T15:38:54.798Z,12.34
2023-03-19T15:41:24.554Z,12.30
2023-03-19T15:43:51.725Z,12.25
2023-03-19T15:46:24.869Z,12.22
2023-03-19T15:48:58.853Z,12.28
2023-03-19T15:51:26.605Z,12.34
2023-03-19T15:53:54.455Z,12.33
2023-03-19T15:56:21.659Z,12.36
2023-03-19T15:58:53.366Z,12.40
2023-03-19T16:01:21.360Z,12.41
2023-03-19T16:04:13.001Z,12.42
2023-03-19T16:06:40.707Z,12.44
2023-03-19T16:09:30.881Z,12.47
2023-03-19T16:11:57.822Z,12.48
2023-03-19T16:14:30.880Z,12.52
2023-03-19T16:17:33.914Z,12.54
2023-03-19T16:20:03.607Z,12.54
2023-03-19T16:22:32.857Z,12.55
2023-03-19T16:25:02.227Z,12.55
2023-03-19T16:27:36.353Z,12.53
2023-03-19T16:30:14.069Z,12.51
2023-03-19T16:32:42.256Z,12.53
2023-03-19T16:35:20.616Z,12.56
2023-03-19T16:37:50.000Z,12.52
2023-03-19T16:40:23.935Z,12.54
2023-03-19T16:42:56.066Z,12.46
2023-03-19T16:45:26.113Z,12.44
2023-03-19T16:47:58.746Z,12.41
2023-03-19T16:50:39.971Z,12.40
2023-03-19T16:53:23.600Z,12.39
2023-03-19T16:55:53.525Z,12.33
2023-03-19T16:58:26.470Z,12.34
2023-03-19T17:00:53.836Z,12.26
2023-03-19T17:03:20.483Z,12.27
2023-03-19T17:05:48.650Z,12.25
2023-03-19T17:08:15.973Z,12.19
2023-03-19T17:10:49.613Z,12.16
2023-03-19T17:13:45.702Z,12.18
2023-03-19T17:16:13.338Z,12.15
2023-03-19T17:18:42.910Z,12.19
2023-03-19T17:21:16.053Z,12.11
2023-03-19T17:23:42.770Z,12.08
2023-03-19T17:26:28.193Z,12.06
2023-03-19T17:28:56.452Z,12.03
2023-03-19T17:31:23.704Z,12.00
2023-03-19T17:33:51.750Z,11.95
2023-03-19T17:36:19.888Z,11.89
2023-03-19T17:38:46.444Z,11.84
2023-03-19T17:41:18.825Z,11.80
2023-03-19T17:43:46.814Z,11.75
2023-03-19T17:46:19.400Z,11.73
2023-03-19T17:48:49.898Z,11.65
2023-03-19T17:51:17.803Z,11.59
2023-03-19T17:53:49.306Z,11.56
2023-03-19T17:56:20.389Z,11.46
2023-03-19T17:58:50.234Z,11.44
2023-03-19T18:01:23.855Z,11.35
2023-03-19T18:03:53.349Z,11.30
2023-03-19T18:06:23.979Z,11.24
2023-03-19T18:08:50.833Z,11.18
2023-03-19T18:11:20.356Z,11.16
2023-03-19T18:13:47.338Z,11.07
2023-03-19T18:16:21.027Z,11.08
2023-03-19T18:18:50.305Z,11.06
2023-03-19T18:21:17.630Z,11.02
2023-03-19T18:23:45.449Z,10.99
2023-03-19T18:26:13.058Z,10.92
2023-03-19T18:28:40.009Z,10.88
2023-03-19T18:31:15.644Z,10.83
2023-03-19T18:33:49.630Z,10.80
2023-03-19T18:36:24.263Z,10.77
2023-03-19T18:38:51.833Z,10.73
2023-03-19T18:41:20.601Z,10.71
2023-03-19T18:44:03.772Z,10.67
2023-03-19T18:46:32.808Z,10.68
2023-03-19T18:49:02.696Z,10.64
2023-03-19T18:51:30.580Z,10.63
2023-03-19T18:53:57.979Z,10.61
2023-03-19T18:56:29.007Z,10.58
2023-03-19T18:58:58.910Z,10.58
2023-03-19T19:01:29.048Z,10.55
2023-03-19T19:03:56.218Z,10.53
2023-03-19T19:06:46.956Z,10.55
2023-03-19T19:09:14.784Z,10.55
2023-03-19T19:11:47.520Z,10.51
2023-03-19T19:14:24.762Z,10.46
2023-03-19T19:16:53.528Z,10.48
2023-03-19T19:19:24.185Z,10.50
2023-03-19T19:21:51.526Z,10.45
2023-03-19T19:24:19.101Z,10.45
2023-03-19T19:26:47.917Z,10.43
2023-03-19T19:29:22.188Z,10.41
2023-03-19T19:31:48.999Z,10.44
2023-03-19T19:34:16.994Z,10.44
2023-03-19T19:36:43.594Z,10.44
2023-03-19T19:39:10.968Z,10.44
2023-03-19T19:41:38.769Z,10.43
2023-03-19T19:44:07.006Z,10.43
2023-03-19T19:46:33.730Z,10.39
2023-03-19T19:49:00.799Z,10.39
2023-03-19T19:51:29.750Z,10.38
2023-03-19T19:53:56.542Z,10.34
2023-03-19T19:56:26.115Z,10.33
2023-03-19T19:58:54.744Z,10.39
2023-03-19T20:01:24.328Z,10.35
2023-03-19T20:03:52.168Z,10.33
2023-03-19T20:06:19.896Z,10.34
2023-03-19T20:08:49.334Z,10.34
2023-03-19T20:11:19.167Z,10.31
2023-03-19T20:13:52.529Z,10.34
2023-03-19T20:16:21.888Z,10.33
2023-03-19T20:18:50.972Z,10.33
2023-03-19T20:21:18.168Z,10.29
2023-03-19T20:23:45.959Z,10.32
2023-03-19T20:26:19.542Z,10.29
2023-03-19T20:28:47.348Z,10.30
2023-03-19T20:31:32.881Z,10.26
2023-03-19T20:34:00.156Z,10.27
2023-03-19T20:36:26.803Z,10.27
2023-03-19T20:38:54.466Z,10.30
2023-03-19T20:41:24.076Z,10.26
2023-03-19T20:43:51.569Z,10.29
2023-03-19T20:46:20.373Z,10.31
2023-03-19T20:48:48.312Z,10.30
2023-03-19T20:51:24.575Z,10.27
2023-03-19T20:53:53.087Z,10.25
2023-03-19T20:56:24.501Z,10.26
2023-03-19T20:58:52.157Z,10.24
2023-03-19T21:01:19.637Z,10.22
2023-03-19T21:03:47.891Z,10.26
2023-03-19T21:06:23.980Z,10.28
2023-03-19T21:08:58.919Z,10.21
2023-03-19T21:11:44.738Z,10.25
2023-03-19T21:14:18.691Z,10.25
2023-03-19T21:16:45.309Z,10.25
2023-03-19T21:19:12.974Z,10.28
2023-03-19T21:21:39.959Z,10.24
2023-03-19T21:24:12.640Z,10.27
2023-03-19T21:26:40.680Z,10.25
2023-03-19T21:29:14.738Z,10.24
